createdAt,value
2018-06-13T00:01:45.622Z,100007.65
2018-06-13T00:04:14.860Z,100006.41
2018-06-13T00:06:43.853Z,100009.81
2018-06-13T00:09:12.884Z,100012.47
2018-06-13T00:11:41.843Z,100015.98
2018-06-13T00:14:10.887Z,100018.87
2018-06-13T00:16:39.866Z,100019.80
2018-06-13T00:19:08.922Z,100018.22
2018-06-13T00:21:37.913Z,100015.53
2018-06-13T00:24:07.550Z,100014.87
2018-06-13T00:26:36.514Z,100019.95
2018-06-13T00:29:05.683Z,100020.62
2018-06-13T00:31:34.659Z,100028.33
2018-06-13T00:34:03.663Z,100028.14
2018-06-13T00:36:32.702Z,100026.72
2018-06-13T00:39:01.697Z,100027.19
2018-06-13T00:41:30.688Z,100026.59
2018-06-13T00:43:59.715Z,100029.47
2018-06-13T00:46:28.693Z,100029.43
2018-06-13T00:48:57.693Z,100022.30
2018-06-13T00:51:26.695Z,100039.75
2018-06-13T00:53:56.146Z,100031.02
2018-06-13T00:56:31.225Z,100032.05
2018-06-13T00:59:00.229Z,100032.06
2018-06-13T01:01:29.216Z,100032.00
2018-06-13T01:03:58.221Z,100033.57
2018-06-13T01:06:27.202Z,100031.81
2018-06-13T01:08:56.243Z,100039.95
2018-06-13T01:11:26.101Z,100033.86
2018-06-13T01:13:55.106Z,100031.92
2018-06-13T01:16:24.091Z,100032.61
2018-06-13T01:18:53.140Z,100031.27
2018-06-13T01:21:22.107Z,100026.50
2018-06-13T01:23:51.118Z,100028.39
2018-06-13T01:26:26.701Z,100022.09
2018-06-13T01:28:55.711Z,100015.95
2018-06-13T01:31:24.694Z,100014.00
2018-06-13T01:33:53.723Z,100014.79
2018-06-13T01:36:28.242Z,100013.73
2018-06-13T01:38:57.779Z,100006.05
2018-06-13T01:41:26.825Z,100010.36
2018-06-13T01:43:55.872Z,100010.29
2018-06-13T01:46:24.870Z,100014.58
2018-06-13T01:48:53.888Z,100013.36
2018-06-13T01:51:22.866Z,100015.92
2018-06-13T01:53:51.890Z,100012.53
2018-06-13T01:56:20.863Z,100010.16
2018-06-13T01:58:49.883Z,100008.86
2018-06-13T02:01:18.883Z,100006.98
2018-06-13T02:03:47.950Z,100010.72
2018-06-13T02:06:16.950Z,100015.08
2018-06-13T02:08:45.969Z,100010.28
2018-06-13T02:11:14.970Z,100013.05
2018-06-13T02:13:43.998Z,100010.34
2018-06-13T02:16:12.989Z,100015.47
2018-06-13T02:18:41.986Z,100011.80
2018-06-13T02:21:10.944Z,100007.05
2018-06-13T02:23:40.012Z,100018.42
2018-06-13T02:26:08.972Z,100011.16
2018-06-13T02:28:37.962Z,100014.36
2018-06-13T02:31:07.050Z,100013.02
2018-06-13T02:33:36.070Z,100004.80
2018-06-13T02:36:05.035Z,100011.23
2018-06-13T02:38:34.035Z,100012.21
2018-06-13T02:41:03.026Z,100019.38
2018-06-13T02:43:32.023Z,100018.38
2018-06-13T02:46:00.978Z,100014.56
2018-06-13T02:48:29.971Z,100012.70
2018-06-13T02:50:58.923Z,100015.02
2018-06-13T02:53:27.923Z,100027.48
2018-06-13T02:55:56.962Z,100016.13
2018-06-13T02:58:25.918Z,100017.16
2018-06-13T03:00:54.971Z,100005.98
2018-06-13T03:03:23.952Z,100017.39
2018-06-13T03:05:52.947Z,100013.84
2018-06-13T03:08:21.942Z,100016.94
2018-06-13T03:10:50.968Z,100016.91
2018-06-13T03:13:19.982Z,100025.91
2018-06-13T03:15:48.963Z,100023.13
2018-06-13T03:18:17.984Z,100023.63
2018-06-13T03:20:46.996Z,100022.38
2018-06-13T03:23:15.982Z,100026.73
2018-06-13T03:25:45.008Z,100032.53
2018-06-13T03:28:13.955Z,100035.23
2018-06-13T03:30:42.972Z,100037.16
2018-06-13T03:33:11.943Z,100032.20
2018-06-13T03:35:40.939Z,100026.43
2018-06-13T03:38:09.936Z,100031.30
2018-06-13T03:40:38.934Z,100036.84
2018-06-13T03:43:07.894Z,100036.30
2018-06-13T03:45:36.915Z,100040.09
2018-06-13T03:48:05.931Z,100037.41
2018-06-13T03:50:34.929Z,100032.02
2018-06-13T03:53:03.870Z,100050.36
2018-06-13T03:55:32.929Z,100053.16
2018-06-13T03:58:01.966Z,100059.86
2018-06-13T04:00:30.962Z,100054.22
2018-06-13T04:02:59.902Z,100059.17
2018-06-13T04:05:28.912Z,100055.97
2018-06-13T04:07:57.899Z,100066.55
2018-06-13T04:10:26.884Z,100056.79
2018-06-13T04:12:55.932Z,100070.54
2018-06-13T04:15:24.951Z,100073.94
2018-06-13T04:17:53.911Z,100069.22
2018-06-13T04:20:22.913Z,100071.75
2018-06-13T04:22:51.850Z,100063.14
2018-06-13T04:25:20.828Z,100068.69
2018-06-13T04:27:49.839Z,100076.34
2018-06-13T04:30:19.152Z,100066.56
2018-06-13T04:32:48.179Z,100069.67
2018-06-13T04:35:17.187Z,100072.41
2018-06-13T04:37:46.142Z,100064.20
2018-06-13T04:40:15.209Z,100053.44
2018-06-13T04:42:44.178Z,100066.53
2018-06-13T04:45:13.244Z,100072.56
2018-06-13T04:47:42.233Z,100058.70
2018-06-13T04:50:11.236Z,100069.50
2018-06-13T04:52:40.233Z,100072.26
2018-06-13T04:55:09.265Z,100082.36
2018-06-13T04:57:38.275Z,100076.69
2018-06-13T05:00:07.413Z,100080.73
2018-06-13T05:02:36.394Z,100082.57
2018-06-13T05:05:05.407Z,100082.77
2018-06-13T05:07:34.370Z,100090.91
2018-06-13T05:10:03.391Z,100095.09
2018-06-13T05:12:32.362Z,100102.84
2018-06-13T05:15:01.363Z,100099.67
2018-06-13T05:17:30.351Z,100098.11
2018-06-13T05:19:59.382Z,100100.97
2018-06-13T05:22:28.403Z,100109.23
2018-06-13T05:24:57.407Z,100109.28
2018-06-13T05:27:26.359Z,100114.52
2018-06-13T05:29:55.467Z,100123.38
2018-06-13T05:32:24.428Z,100129.91
2018-06-13T05:34:53.437Z,100136.16
2018-06-13T05:37:22.434Z,100133.64
2018-06-13T05:39:51.494Z,100133.81
2018-06-13T05:42:20.464Z,100137.31
2018-06-13T05:44:49.479Z,100138.45
2018-06-13T05:47:18.451Z,100140.98
2018-06-13T05:49:47.567Z,100138.05
2018-06-13T05:52:16.534Z,100149.16
2018-06-13T05:54:45.502Z,100146.63
2018-06-13T05:57:14.476Z,100149.31
2018-06-13T05:59:43.496Z,100148.14
2018-06-13T06:02:12.587Z,100144.91
2018-06-13T06:04:41.566Z,100150.11
2018-06-13T06:07:10.820Z,100161.60
2018-06-13T06:09:39.868Z,100169.06
2018-06-13T06:12:08.914Z,100156.25
2018-06-13T06:14:37.874Z,100158.91
2018-06-13T06:17:06.961Z,100162.28
2018-06-13T06:19:35.926Z,100164.79
2018-06-13T06:22:04.937Z,100162.14
2018-06-13T06:24:33.945Z,100169.23
2018-06-13T06:27:02.945Z,100182.08
2018-06-13T06:29:31.971Z,100177.07
2018-06-13T06:32:01.058Z,100174.86
2018-06-13T06:34:30.020Z,100187.56
2018-06-13T06:36:59.074Z,100185.34
2018-06-13T06:39:28.045Z,100179.16
2018-06-13T06:41:57.099Z,100167.52
2018-06-13T06:44:26.134Z,100172.14
2018-06-13T06:46:55.151Z,100178.48
2018-06-13T06:49:24.126Z,100178.32
2018-06-13T06:51:53.143Z,100176.97
2018-06-13T06:54:22.085Z,100172.61
2018-06-13T06:56:51.099Z,100179.62
2018-06-13T06:59:20.035Z,100180.89
2018-06-13T07:01:49.068Z,100176.14
2018-06-13T07:04:18.107Z,100191.18
2018-06-13T07:06:47.134Z,100200.50
2018-06-13T07:09:16.126Z,100191.48
2018-06-13T07:11:45.156Z,100193.48
2018-06-13T07:14:14.255Z,100202.84
2018-06-13T07:16:43.247Z,100207.89
2018-06-13T07:19:12.588Z,100218.97
2018-06-13T07:21:41.815Z,100207.42
2018-06-13T07:24:10.958Z,100206.16
2018-06-13T07:26:40.014Z,100227.10
2018-06-13T07:29:08.986Z,100209.61
2018-06-13T07:31:38.025Z,100205.18
2018-06-13T07:34:07.107Z,100207.88
2018-06-13T07:36:36.136Z,100226.57
2018-06-13T07:39:07.476Z,100226.74
2018-06-13T07:41:36.536Z,100233.55
2018-06-13T07:44:05.639Z,100233.92
2018-06-13T07:46:34.822Z,100239.24
2018-06-13T07:49:03.791Z,100253.45
2018-06-13T07:51:32.823Z,100229.37
2018-06-13T07:54:01.850Z,100227.92
2018-06-13T07:56:30.927Z,100220.79
2018-06-13T07:58:59.956Z,100222.63
2018-06-13T08:01:29.035Z,100210.02
2018-06-13T08:03:58.196Z,100222.28
2018-06-13T08:06:27.167Z,100225.17
2018-06-13T08:08:56.206Z,100225.90
2018-06-13T08:11:25.299Z,100215.71
2018-06-13T08:13:54.488Z,100212.75
2018-06-13T08:16:23.775Z,100215.55
2018-06-13T08:18:52.713Z,100214.20
2018-06-13T08:21:21.689Z,100214.53
2018-06-13T08:23:50.924Z,100216.87
2018-06-13T08:26:20.065Z,100213.73
2018-06-13T08:28:49.139Z,100220.20
2018-06-13T08:31:18.189Z,100217.80
2018-06-13T08:33:47.424Z,100221.66
2018-06-13T08:36:16.400Z,100222.84
2018-06-13T08:38:45.430Z,100219.44
2018-06-13T08:41:14.754Z,100218.83
2018-06-13T08:43:44.722Z,100213.53
2018-06-13T08:46:14.304Z,100212.01
2018-06-13T08:48:43.374Z,100218.08
2018-06-13T08:51:12.409Z,100219.11
2018-06-13T08:53:41.558Z,100218.20
2018-06-13T08:56:10.626Z,100208.52
2018-06-13T08:58:39.575Z,100221.86
2018-06-13T09:01:08.610Z,100209.17
2018-06-13T09:03:37.819Z,100221.68
2018-06-13T09:06:07.147Z,100214.55
2018-06-13T09:08:36.729Z,100225.85
2018-06-13T09:11:05.970Z,100222.27
2018-06-13T09:13:35.341Z,100222.68
2018-06-13T09:16:04.674Z,100224.71
2018-06-13T09:18:34.279Z,100225.90
2018-06-13T09:21:03.705Z,100227.52
2018-06-13T09:23:32.767Z,100233.46
2018-06-13T09:26:01.794Z,100230.03
2018-06-13T09:28:30.954Z,100231.14
2018-06-13T09:31:00.059Z,100229.24
2018-06-13T09:33:29.135Z,100232.44
2018-06-13T09:35:58.105Z,100237.16
2018-06-13T09:38:27.130Z,100236.89
2018-06-13T09:40:56.076Z,100229.60
2018-06-13T09:43:25.171Z,100233.06
2018-06-13T09:46:03.271Z,100240.77
2018-06-13T09:48:23.261Z,100239.70
2018-06-13T09:50:52.180Z,100239.88
2018-06-13T09:53:21.362Z,100245.49
2018-06-13T09:55:50.610Z,100244.77
2018-06-13T09:58:19.663Z,100249.08
2018-06-13T10:00:54.193Z,100254.41
2018-06-13T10:03:23.166Z,100258.53
2018-06-13T10:05:52.117Z,100260.42
2018-06-13T10:08:21.220Z,100264.77
2018-06-13T10:10:50.203Z,100264.67
2018-06-13T10:13:19.454Z,100265.78
2018-06-13T10:15:48.547Z,100266.36
2018-06-13T10:18:17.883Z,100263.28
2018-06-13T10:20:47.297Z,100265.19
2018-06-13T10:23:16.432Z,100265.45
2018-06-13T10:25:45.560Z,100263.59
2018-06-13T10:28:14.685Z,100266.39
2018-06-13T10:30:43.647Z,100259.28
2018-06-13T10:33:12.854Z,100260.22
2018-06-13T10:35:41.904Z,100256.02
2018-06-13T10:38:11.143Z,100251.14
2018-06-13T10:40:40.194Z,100259.28
2018-06-13T10:43:09.542Z,100250.53
2018-06-13T10:45:38.604Z,100262.88
2018-06-13T10:48:07.607Z,100265.72
2018-06-13T10:50:36.593Z,100267.38
2018-06-13T10:53:05.620Z,100256.34
2018-06-13T10:55:34.699Z,100255.48
2018-06-13T10:58:03.750Z,100259.05
2018-06-13T11:00:32.784Z,100262.34
2018-06-13T11:03:01.827Z,100266.61
2018-06-13T11:05:30.930Z,100264.23
2018-06-13T11:08:00.024Z,100261.37
2018-06-13T11:10:29.002Z,100260.08
2018-06-13T11:12:58.004Z,100263.97
2018-06-13T11:15:27.111Z,100272.97
2018-06-13T11:17:56.243Z,100271.33
2018-06-13T11:20:25.428Z,100266.53
2018-06-13T11:22:54.768Z,100266.41
2018-06-13T11:25:23.751Z,100258.30
2018-06-13T11:27:52.865Z,100264.94
2018-06-13T11:30:21.859Z,100273.17
2018-06-13T11:32:51.022Z,100275.07
2018-06-13T11:35:19.998Z,100269.66
2018-06-13T11:37:49.109Z,100272.86
2018-06-13T11:40:18.445Z,100267.65
2018-06-13T11:42:47.491Z,100281.84
2018-06-13T11:45:16.542Z,100280.16
2018-06-13T11:47:45.558Z,100278.53
2018-06-13T11:50:14.756Z,100281.56
2018-06-13T11:52:44.096Z,100288.03
2018-06-13T11:55:13.214Z,100283.57
2018-06-13T11:57:42.214Z,100282.59
2018-06-13T12:00:11.258Z,100280.00
2018-06-13T12:02:40.368Z,100279.88
2018-06-13T12:05:09.506Z,100294.20
2018-06-13T12:07:38.670Z,100290.68
2018-06-13T12:10:07.730Z,100287.72
2018-06-13T12:12:36.733Z,100292.34
2018-06-13T12:15:05.746Z,100290.27
2018-06-13T12:17:34.710Z,100293.12
2018-06-13T12:20:03.779Z,100296.93
2018-06-13T12:22:33.014Z,100292.17
2018-06-13T12:25:02.225Z,100294.16
2018-06-13T12:27:31.173Z,100291.77
2018-06-13T12:30:00.173Z,100294.89
2018-06-13T12:32:29.193Z,100287.84
2018-06-13T12:34:58.211Z,100297.39
2018-06-13T12:37:27.397Z,100300.99
2018-06-13T12:39:56.516Z,100288.19
2018-06-13T12:42:25.527Z,100296.91
2018-06-13T12:44:54.539Z,100293.69
2018-06-13T12:47:23.578Z,100294.03
2018-06-13T12:49:52.577Z,100295.88
2018-06-13T12:52:21.541Z,100291.58
2018-06-13T12:54:50.695Z,100284.69
2018-06-13T12:57:20.765Z,100287.69
2018-06-13T12:59:49.915Z,100285.34
2018-06-13T13:02:18.974Z,100289.87
2018-06-13T13:04:48.017Z,100287.43
2018-06-13T13:07:17.026Z,100295.97
2018-06-13T13:09:46.066Z,100296.01
2018-06-13T13:12:15.214Z,100294.55
2018-06-13T13:14:44.266Z,100303.59
2018-06-13T13:17:13.235Z,100303.84
2018-06-13T13:19:42.334Z,100303.40
2018-06-13T13:22:11.467Z,100303.59
2018-06-13T13:24:40.595Z,100308.93
2018-06-13T13:27:09.572Z,100310.53
2018-06-13T13:29:38.669Z,100314.22
2018-06-13T13:32:07.655Z,100313.62
2018-06-13T13:34:36.873Z,100309.66
2018-06-13T13:37:05.996Z,100301.52
2018-06-13T13:39:35.111Z,100310.60
2018-06-13T13:42:04.095Z,100311.33
2018-06-13T13:44:33.241Z,100305.00
2018-06-13T13:47:02.235Z,100307.91
2018-06-13T13:49:31.271Z,100311.54
2018-06-13T13:52:00.400Z,100311.52
2018-06-13T13:54:29.383Z,100310.34
2018-06-13T13:56:58.356Z,100309.39
2018-06-13T13:59:27.533Z,100310.02
2018-06-13T14:01:56.580Z,100312.73
2018-06-13T14:04:25.610Z,100310.74
2018-06-13T14:06:54.557Z,100308.02
2018-06-13T14:09:23.670Z,100310.66
2018-06-13T14:11:52.646Z,100313.28
2018-06-13T14:14:21.658Z,100302.45
2018-06-13T14:16:56.895Z,100305.79
2018-06-13T14:19:26.065Z,100304.87
2018-06-13T14:21:55.154Z,100309.38
2018-06-13T14:24:24.309Z,100310.73
2018-06-13T14:26:53.472Z,100315.53
2018-06-13T14:29:22.481Z,100314.34
2018-06-13T14:31:51.423Z,100304.62
2018-06-13T14:34:20.489Z,100313.30
2018-06-13T14:36:49.474Z,100311.44
2018-06-13T14:39:18.484Z,100305.14
2018-06-13T14:41:47.494Z,100309.50
2018-06-13T14:44:16.619Z,100306.33
2018-06-13T14:46:45.655Z,100304.08
2018-06-13T14:49:14.698Z,100296.03
2018-06-13T14:51:44.885Z,100297.02
2018-06-13T14:54:14.037Z,100305.05
2018-06-13T14:56:43.031Z,100314.07
2018-06-13T14:59:12.075Z,100313.62
2018-06-13T15:01:41.075Z,100310.29
2018-06-13T15:04:10.134Z,100307.12
2018-06-13T15:06:39.164Z,100310.25
2018-06-13T15:09:10.047Z,100301.23
2018-06-13T15:11:40.086Z,100306.51
2018-06-13T15:14:09.332Z,100305.16
2018-06-13T15:16:38.430Z,100305.06
2018-06-13T15:19:07.726Z,100307.11
2018-06-13T15:21:36.814Z,100312.98
2018-06-13T15:24:05.864Z,100307.74
2018-06-13T15:26:35.391Z,100312.33
2018-06-13T15:29:04.585Z,100313.96
2018-06-13T15:31:33.631Z,100317.25
2018-06-13T15:34:02.815Z,100315.55
2018-06-13T15:36:31.856Z,100314.47
2018-06-13T15:39:00.801Z,100315.47
2018-06-13T15:41:29.959Z,100317.19
2018-06-13T15:43:59.054Z,100326.33
2018-06-13T15:46:28.125Z,100320.72
2018-06-13T15:48:57.171Z,100316.60
2018-06-13T15:51:26.180Z,100316.56
2018-06-13T15:53:55.246Z,100315.78
2018-06-13T15:56:24.368Z,100317.14
2018-06-13T15:58:53.323Z,100316.27
2018-06-13T16:01:22.433Z,100316.24
2018-06-13T16:03:51.897Z,100319.77
2018-06-13T16:06:21.048Z,100325.37
2018-06-13T16:08:50.425Z,100317.36
2018-06-13T16:11:19.750Z,100320.92
2018-06-13T16:13:48.875Z,100306.47
2018-06-13T16:16:18.325Z,100311.39
2018-06-13T16:18:47.349Z,100307.14
2018-06-13T16:21:17.276Z,100309.36
2018-06-13T16:23:46.303Z,100317.34
2018-06-13T16:26:15.335Z,100312.06
2018-06-13T16:28:44.364Z,100317.32
2018-06-13T16:31:13.453Z,100319.81
2018-06-13T16:33:42.443Z,100324.42
2018-06-13T16:36:11.442Z,100325.66
2018-06-13T16:38:40.384Z,100324.11
2018-06-13T16:41:09.370Z,100323.77
2018-06-13T16:43:38.314Z,100328.79
2018-06-13T16:46:07.314Z,100320.68
2018-06-13T16:48:36.415Z,100320.80
2018-06-13T16:51:16.316Z,100319.61
2018-06-13T16:53:47.356Z,100329.27
2018-06-13T16:56:16.996Z,100331.73
2018-06-13T16:58:46.046Z,100336.42
2018-06-13T17:01:15.033Z,100331.17
2018-06-13T17:03:43.975Z,100337.41
2018-06-13T17:06:13.050Z,100341.53
2018-06-13T17:08:42.027Z,100338.34
2018-06-13T17:11:11.042Z,100341.89
2018-06-13T17:13:40.025Z,100339.44
2018-06-13T17:16:09.025Z,100343.77
2018-06-13T17:18:37.956Z,100349.37
2018-06-13T17:21:06.975Z,100346.16
2018-06-13T17:23:36.725Z,100356.84
2018-06-13T17:26:05.771Z,100360.22
2018-06-13T17:28:35.006Z,100348.97
2018-06-13T17:31:04.003Z,100353.23
2018-06-13T17:33:33.427Z,100346.08
2018-06-13T17:36:02.762Z,100357.06
2018-06-13T17:38:31.725Z,100357.30
2018-06-13T17:41:00.750Z,100358.87
2018-06-13T17:43:29.723Z,100357.42
2018-06-13T17:45:58.699Z,100355.80
2018-06-13T17:48:27.746Z,100347.33
2018-06-13T17:50:56.747Z,100346.53
2018-06-13T17:53:25.711Z,100360.01
2018-06-13T17:55:54.691Z,100359.45
2018-06-13T17:58:23.645Z,100360.38
2018-06-13T18:00:52.664Z,100361.01
2018-06-13T18:03:21.960Z,100362.69
2018-06-13T18:05:51.216Z,100370.55
2018-06-13T18:08:20.401Z,100371.78
2018-06-13T18:10:49.695Z,100370.92
2018-06-13T18:13:18.655Z,100368.09
2018-06-13T18:15:47.723Z,100367.84
2018-06-13T18:18:16.663Z,100373.50
2018-06-13T18:20:45.845Z,100377.58
2018-06-13T18:23:14.966Z,100380.84
2018-06-13T18:25:44.040Z,100382.59
2018-06-13T18:28:13.142Z,100383.75
2018-06-13T18:30:42.103Z,100386.28
2018-06-13T18:33:11.257Z,100387.23
2018-06-13T18:35:40.265Z,100385.95
2018-06-13T18:38:09.309Z,100392.66
2018-06-13T18:40:38.347Z,100382.40
2018-06-13T18:43:07.384Z,100386.38
2018-06-13T18:45:36.535Z,100394.13
2018-06-13T18:48:05.747Z,100391.28
2018-06-13T18:50:34.683Z,100391.80
2018-06-13T18:53:03.676Z,100394.18
2018-06-13T18:55:32.692Z,100403.13
2018-06-13T18:58:01.875Z,100398.86
2018-06-13T19:00:30.819Z,100399.70
2018-06-13T19:02:59.959Z,100396.52
2018-06-13T19:05:28.959Z,100399.60
2018-06-13T19:07:58.652Z,100403.14
2018-06-13T19:10:27.637Z,100406.68
2018-06-13T19:12:56.724Z,100407.52
2018-06-13T19:15:25.847Z,100410.13
2018-06-13T19:17:54.943Z,100412.73
2018-06-13T19:20:24.003Z,100415.11
2018-06-13T19:22:53.043Z,100413.90
2018-06-13T19:25:22.074Z,100410.48
2018-06-13T19:27:51.093Z,100415.95
2018-06-13T19:30:20.378Z,100419.56
2018-06-13T19:32:49.433Z,100421.16
2018-06-13T19:35:18.473Z,100429.02
2018-06-13T19:37:47.465Z,100417.88
2018-06-13T19:40:16.417Z,100423.33
2018-06-13T19:42:45.514Z,100417.80
2018-06-13T19:45:14.687Z,100418.98
2018-06-13T19:47:48.873Z,100427.27
2018-06-13T19:50:18.192Z,100427.16
2018-06-13T19:52:52.515Z,100431.95
2018-06-13T19:55:26.949Z,100429.45
2018-06-13T19:57:56.363Z,100433.31
2018-06-13T20:00:25.597Z,100430.14
2018-06-13T20:02:59.992Z,100429.58
2018-06-13T20:05:34.253Z,100427.86
2018-06-13T20:08:03.323Z,100433.39
2018-06-13T20:10:32.564Z,100427.37
2018-06-13T20:13:06.752Z,100433.07
2018-06-13T20:15:40.875Z,100439.01
2018-06-13T20:18:15.031Z,100436.73
2018-06-13T20:20:44.023Z,100431.88
2018-06-13T20:23:13.063Z,100438.83
2018-06-13T20:25:47.220Z,100434.84
2018-06-13T20:28:21.322Z,100438.42
2018-06-13T20:30:55.486Z,100429.05
2018-06-13T20:33:24.554Z,100429.66
2018-06-13T20:35:53.515Z,100433.56
2018-06-13T20:38:22.515Z,100435.38
2018-06-13T20:40:51.518Z,100439.33
2018-06-13T20:43:20.553Z,100443.16
2018-06-13T20:45:49.575Z,100445.38
2018-06-13T20:48:18.591Z,100441.84
2018-06-13T20:50:47.623Z,100433.43
2018-06-13T20:53:16.578Z,100441.66
2018-06-13T20:55:45.614Z,100441.90
2018-06-13T20:58:14.578Z,100446.72
2018-06-13T21:00:43.688Z,100439.12
2018-06-13T21:03:12.702Z,100449.74
2018-06-13T21:05:41.733Z,100443.95
2018-06-13T21:08:10.672Z,100445.62
2018-06-13T21:10:39.658Z,100443.64
2018-06-13T21:13:08.603Z,100444.91
2018-06-13T21:15:37.623Z,100448.95
2018-06-13T21:18:06.624Z,100456.67
2018-06-13T21:20:35.714Z,100458.09
2018-06-13T21:23:04.669Z,100460.89
2018-06-13T21:25:33.639Z,100461.22
2018-06-13T21:28:02.648Z,100462.87
2018-06-13T21:30:31.906Z,100467.97
2018-06-13T21:33:00.907Z,100466.50
2018-06-13T21:35:29.931Z,100462.36
2018-06-13T21:37:58.884Z,100463.77
2018-06-13T21:40:27.895Z,100458.86
2018-06-13T21:42:56.837Z,100454.59
2018-06-13T21:45:25.930Z,100460.39
2018-06-13T21:47:54.919Z,100455.91
2018-06-13T21:50:23.906Z,100462.33
2018-06-13T21:52:52.848Z,100456.89
2018-06-13T21:55:21.835Z,100458.45
2018-06-13T21:57:50.845Z,100466.47
2018-06-13T22:00:19.868Z,100461.99
2018-06-13T22:02:48.855Z,100460.53
2018-06-13T22:05:17.845Z,100461.41
2018-06-13T22:07:46.804Z,100455.51
2018-06-13T22:10:15.813Z,100453.89
2018-06-13T22:12:44.770Z,100452.39
2018-06-13T22:15:24.931Z,100453.23
2018-06-13T22:17:55.463Z,100452.68
2018-06-13T22:20:24.556Z,100457.89
2018-06-13T22:22:53.701Z,100457.69
2018-06-13T22:25:22.687Z,100461.83
2018-06-13T22:27:51.673Z,100458.55
2018-06-13T22:30:20.670Z,100449.38
2018-06-13T22:32:49.685Z,100445.69
2018-06-13T22:35:18.720Z,100443.56
2018-06-13T22:37:47.703Z,100439.41
2018-06-13T22:40:16.673Z,100439.25
2018-06-13T22:42:45.694Z,100442.61
2018-06-13T22:45:14.704Z,100453.39
2018-06-13T22:47:43.738Z,100448.36
2018-06-13T22:50:12.837Z,100451.97
2018-06-13T22:52:41.848Z,100449.81
2018-06-13T22:55:10.853Z,100451.20
2018-06-13T22:57:39.879Z,100452.57
2018-06-13T23:00:09.008Z,100453.44
2018-06-13T23:02:38.044Z,100453.19
2018-06-13T23:05:07.074Z,100441.34
2018-06-13T23:07:36.094Z,100442.41
2018-06-13T23:10:05.226Z,100437.27
2018-06-13T23:12:34.234Z,100439.84
2018-06-13T23:15:03.202Z,100439.44
2018-06-13T23:17:32.242Z,100446.91
2018-06-13T23:20:01.418Z,100447.51
2018-06-13T23:22:30.433Z,100445.08
2018-06-13T23:24:59.402Z,100447.91
2018-06-13T23:27:28.430Z,100442.03
2018-06-13T23:29:57.445Z,100439.20
2018-06-13T23:32:26.491Z,100434.15
2018-06-13T23:34:55.474Z,100431.47
2018-06-13T23:37:24.552Z,100428.09
2018-06-13T23:39:53.517Z,100427.25
2018-06-13T23:42:22.523Z,100424.95
2018-06-13T23:44:51.547Z,100418.44
2018-06-13T23:47:20.575Z,100411.77
2018-06-13T23:49:49.561Z,100418.56
2018-06-13T23:52:18.563Z,100417.23
2018-06-13T23:54:47.552Z,100417.41
2018-06-13T23:57:16.530Z,100415.85
2018-06-13T23:59:45.559Z,100410.30
